createdAt,value
2023-03-16T00:01:02.866Z,4.31
2023-03-16T00:03:30.614Z,4.31
2023-03-16T00:05:57.559Z,4.30
2023-03-16T00:08:24.479Z,4.32
2023-03-16T00:10:54.355Z,4.33
2023-03-16T00:13:25.386Z,4.32
2023-03-16T00:15:56.425Z,4.29
2023-03-16T00:18:27.362Z,4.27
2023-03-16T00:20:55.637Z,4.26
2023-03-16T00:23:28.988Z,4.29
2023-03-16T00:25:56.844Z,4.31
2023-03-16T00:28:23.868Z,4.32
2023-03-16T00:30:50.912Z,4.34
2023-03-16T00:33:18.105Z,4.35
2023-03-16T00:35:49.979Z,4.36
2023-03-16T00:38:20.555Z,4.36
2023-03-16T00:40:47.484Z,4.37
2023-03-16T00:43:18.850Z,4.39
2023-03-16T00:45:45.969Z,4.39
2023-03-16T00:48:13.143Z,4.36
2023-03-16T00:50:40.246Z,4.34
2023-03-16T00:53:07.174Z,4.31
2023-03-16T00:55:34.144Z,4.27
2023-03-16T00:58:05.127Z,4.24
2023-03-16T01:00:32.568Z,4.18
2023-03-16T01:02:59.447Z,4.15
2023-03-16T01:05:26.359Z,4.12
2023-03-16T01:07:53.129Z,4.11
2023-03-16T01:10:20.952Z,4.08
2023-03-16T01:12:48.117Z,4.04
2023-03-16T01:15:15.016Z,4.02
2023-03-16T01:17:41.975Z,4.01
2023-03-16T01:20:12.219Z,4.01
2023-03-16T01:22:39.110Z,4.01
2023-03-16T01:25:06.174Z,4.04
2023-03-16T01:27:33.162Z,4.06
2023-03-16T01:30:00.257Z,4.07
2023-03-16T01:32:27.183Z,4.06
2023-03-16T01:34:54.055Z,4.06
2023-03-16T01:37:22.987Z,4.07
2023-03-16T01:39:55.455Z,4.06
2023-03-16T01:42:22.434Z,4.05
2023-03-16T01:44:55.234Z,4.02
2023-03-16T01:47:24.656Z,4.01
2023-03-16T01:49:55.192Z,4.01
2023-03-16T01:52:27.109Z,4.01
2023-03-16T01:55:04.515Z,4.04
2023-03-16T01:57:37.026Z,4.02
2023-03-16T02:00:20.079Z,4.00
2023-03-16T02:03:08.013Z,4.01
2023-03-16T02:05:47.592Z,3.98
2023-03-16T02:08:16.869Z,3.94
2023-03-16T02:10:45.415Z,3.93
2023-03-16T02:13:12.836Z,3.92
2023-03-16T02:15:40.224Z,3.95
2023-03-16T02:18:08.039Z,3.99
2023-03-16T02:20:57.584Z,4.01
2023-03-16T02:23:25.545Z,4.01
2023-03-16T02:26:03.601Z,4.01
2023-03-16T02:28:45.298Z,4.02
2023-03-16T02:31:12.489Z,4.05
2023-03-16T02:33:40.324Z,4.08
2023-03-16T02:36:08.875Z,4.11
2023-03-16T02:38:35.926Z,4.14
2023-03-16T02:41:14.785Z,4.15
2023-03-16T02:43:44.177Z,4.18
2023-03-16T02:46:21.656Z,4.21
2023-03-16T02:49:08.963Z,4.23
2023-03-16T02:51:37.174Z,4.27
2023-03-16T02:54:04.235Z,4.27
2023-03-16T02:56:34.623Z,4.27
2023-03-16T02:59:01.498Z,4.29
2023-03-16T03:01:32.654Z,4.29
2023-03-16T03:03:59.572Z,4.27
2023-03-16T03:06:26.454Z,4.26
2023-03-16T03:08:53.496Z,4.24
2023-03-16T03:11:21.161Z,4.24
2023-03-16T03:13:47.944Z,4.26
2023-03-16T03:16:18.924Z,4.29
2023-03-16T03:18:45.884Z,4.31
2023-03-16T03:21:13.145Z,4.31
2023-03-16T03:23:40.612Z,4.29
2023-03-16T03:26:07.934Z,4.29
2023-03-16T03:28:34.824Z,4.29
2023-03-16T03:31:01.971Z,4.30
2023-03-16T03:33:29.675Z,4.31
2023-03-16T03:35:58.215Z,4.32
2023-03-16T03:38:27.629Z,4.34
2023-03-16T03:40:59.659Z,4.39
2023-03-16T03:43:30.198Z,4.43
2023-03-16T03:46:00.984Z,4.46
2023-03-16T03:48:28.665Z,4.46
2023-03-16T03:50:57.202Z,4.46
2023-03-16T03:53:42.693Z,4.44
2023-03-16T03:56:24.438Z,4.42
2023-03-16T03:58:51.293Z,4.43
2023-03-16T04:01:33.439Z,4.42
2023-03-16T04:04:00.762Z,4.41
2023-03-16T04:06:28.082Z,4.41
2023-03-16T04:08:55.280Z,4.39
2023-03-16T04:11:26.035Z,4.38
2023-03-16T04:13:53.643Z,4.38
2023-03-16T04:16:21.431Z,4.34
2023-03-16T04:18:51.949Z,4.31
2023-03-16T04:21:18.844Z,4.29
2023-03-16T04:23:48.124Z,4.29
2023-03-16T04:26:14.987Z,4.26
2023-03-16T04:28:44.129Z,4.20
2023-03-16T04:31:14.424Z,4.18
2023-03-16T04:33:44.678Z,4.17
2023-03-16T04:36:12.326Z,4.14
2023-03-16T04:38:40.510Z,4.14
2023-03-16T04:41:07.481Z,4.12
2023-03-16T04:43:39.064Z,4.11
2023-03-16T04:46:12.494Z,4.11
2023-03-16T04:48:40.150Z,4.14
2023-03-16T04:51:07.293Z,4.16
2023-03-16T04:53:38.106Z,4.20
2023-03-16T04:56:19.806Z,4.21
2023-03-16T04:58:52.473Z,4.22
2023-03-16T05:01:22.175Z,4.22
2023-03-16T05:03:53.028Z,4.19
2023-03-16T05:06:20.240Z,4.18
2023-03-16T05:08:47.105Z,4.20
2023-03-16T05:11:14.006Z,4.22
2023-03-16T05:13:50.193Z,4.23
2023-03-16T05:16:17.174Z,4.26
2023-03-16T05:18:43.909Z,4.27
2023-03-16T05:21:10.834Z,4.29
2023-03-16T05:24:02.544Z,4.28
2023-03-16T05:26:29.427Z,4.24
2023-03-16T05:28:56.450Z,4.23
2023-03-16T05:31:28.942Z,4.23
2023-03-16T05:33:58.807Z,4.24
2023-03-16T05:36:26.009Z,4.26
2023-03-16T05:38:58.360Z,4.32
2023-03-16T05:41:36.514Z,4.37
2023-03-16T05:44:08.583Z,4.40
2023-03-16T05:46:52.881Z,4.40
2023-03-16T05:49:20.401Z,4.42
2023-03-16T05:51:47.168Z,4.45
2023-03-16T05:54:14.065Z,4.47
2023-03-16T05:56:45.977Z,4.50
2023-03-16T05:59:13.020Z,4.52
2023-03-16T06:01:41.984Z,4.54
2023-03-16T06:04:09.134Z,4.56
2023-03-16T06:06:40.159Z,4.58
2023-03-16T06:09:22.177Z,4.60
2023-03-16T06:11:49.141Z,4.57
2023-03-16T06:14:17.657Z,4.58
2023-03-16T06:16:45.835Z,4.56
2023-03-16T06:19:14.137Z,4.52
2023-03-16T06:21:41.663Z,4.51
2023-03-16T06:24:10.358Z,4.53
2023-03-16T06:26:37.484Z,4.54
2023-03-16T06:29:07.244Z,4.57
2023-03-16T06:31:36.621Z,4.58
2023-03-16T06:34:03.695Z,4.57
2023-03-16T06:36:31.165Z,4.57
2023-03-16T06:39:00.894Z,4.58
2023-03-16T06:41:38.237Z,4.61
2023-03-16T06:44:09.223Z,4.65
2023-03-16T06:46:41.771Z,4.71
2023-03-16T06:49:08.790Z,4.77
2023-03-16T06:51:35.668Z,4.81
2023-03-16T06:54:02.750Z,4.85
2023-03-16T06:56:31.858Z,4.89
2023-03-16T06:58:58.683Z,4.95
2023-03-16T07:01:25.944Z,5.02
2023-03-16T07:03:53.186Z,5.05
2023-03-16T07:06:24.804Z,5.10
2023-03-16T07:08:51.770Z,5.16
2023-03-16T07:11:20.040Z,5.19
2023-03-16T07:13:47.155Z,5.21
2023-03-16T07:16:15.903Z,5.25
2023-03-16T07:18:44.523Z,5.30
2023-03-16T07:21:14.484Z,5.39
2023-03-16T07:23:42.254Z,5.46
2023-03-16T07:26:12.115Z,5.53
2023-03-16T07:28:48.286Z,5.55
2023-03-16T07:31:15.698Z,5.57
2023-03-16T07:33:42.793Z,5.60
2023-03-16T07:36:13.964Z,5.65
2023-03-16T07:38:46.175Z,5.76
2023-03-16T07:41:14.249Z,5.89
2023-03-16T07:43:41.579Z,5.99
2023-03-16T07:46:13.758Z,6.07
2023-03-16T07:48:42.684Z,6.14
2023-03-16T07:51:11.867Z,6.19
2023-03-16T07:53:39.556Z,6.21
2023-03-16T07:56:16.071Z,6.24
2023-03-16T07:58:45.919Z,6.27
2023-03-16T08:01:12.754Z,6.31
2023-03-16T08:03:39.635Z,6.35
2023-03-16T08:06:07.141Z,6.42
2023-03-16T08:08:35.312Z,6.53
2023-03-16T08:11:02.323Z,6.62
2023-03-16T08:13:44.131Z,6.69
2023-03-16T08:16:13.599Z,6.73
2023-03-16T08:18:43.663Z,6.74
2023-03-16T08:21:10.778Z,6.70
2023-03-16T08:23:37.619Z,6.61
2023-03-16T08:26:09.141Z,6.56
2023-03-16T08:28:38.036Z,6.55
2023-03-16T08:31:09.530Z,6.53
2023-03-16T08:33:44.311Z,6.51
2023-03-16T08:36:13.723Z,6.53
2023-03-16T08:38:44.171Z,6.59
2023-03-16T08:41:17.531Z,6.62
2023-03-16T08:43:47.844Z,6.61
2023-03-16T08:46:14.785Z,6.59
2023-03-16T08:48:55.905Z,6.61
2023-03-16T08:51:25.071Z,6.65
2023-03-16T08:53:53.009Z,6.68
2023-03-16T08:56:20.051Z,6.67
2023-03-16T08:58:46.802Z,6.62
2023-03-16T09:01:14.642Z,6.59
2023-03-16T09:03:42.596Z,6.56
2023-03-16T09:06:11.190Z,6.56
2023-03-16T09:08:41.051Z,6.58
2023-03-16T09:11:10.603Z,6.60
2023-03-16T09:13:38.857Z,6.62
2023-03-16T09:16:06.897Z,6.63
2023-03-16T09:18:35.456Z,6.61
2023-03-16T09:21:04.203Z,6.62
2023-03-16T09:23:31.981Z,6.68
2023-03-16T09:26:00.080Z,6.74
2023-03-16T09:28:30.950Z,6.80
2023-03-16T09:30:58.574Z,6.83
2023-03-16T09:33:25.865Z,6.87
2023-03-16T09:35:52.805Z,6.89
2023-03-16T09:38:19.632Z,6.90
2023-03-16T09:40:49.010Z,6.90
2023-03-16T09:43:15.715Z,6.90
2023-03-16T09:45:42.672Z,6.90
2023-03-16T09:48:10.797Z,6.95
2023-03-16T09:50:48.912Z,6.96
2023-03-16T09:53:24.972Z,6.99
2023-03-16T09:56:03.729Z,7.00
2023-03-16T09:58:33.002Z,6.98
2023-03-16T10:01:20.016Z,6.95
2023-03-16T10:03:57.277Z,6.93
2023-03-16T10:06:24.974Z,6.96
2023-03-16T10:08:52.280Z,6.99
2023-03-16T10:11:32.293Z,7.02
2023-03-16T10:14:11.730Z,7.02
2023-03-16T10:16:41.881Z,7.02
2023-03-16T10:19:13.324Z,7.04
2023-03-16T10:21:41.408Z,7.06
2023-03-16T10:24:27.314Z,7.09
2023-03-16T10:27:00.989Z,7.12
2023-03-16T10:29:32.297Z,7.15
2023-03-16T10:32:01.540Z,7.17
2023-03-16T10:34:28.763Z,7.16
2023-03-16T10:36:55.774Z,7.15
2023-03-16T10:39:22.524Z,7.12
2023-03-16T10:41:56.296Z,7.07
2023-03-16T10:44:24.660Z,7.00
2023-03-16T10:46:59.792Z,6.96
2023-03-16T10:49:27.384Z,6.90
2023-03-16T10:51:59.651Z,6.82
2023-03-16T10:54:32.675Z,6.76
2023-03-16T10:57:00.618Z,6.75
2023-03-16T10:59:27.916Z,6.75
2023-03-16T11:01:54.942Z,6.75
2023-03-16T11:04:21.888Z,6.72
2023-03-16T11:06:51.639Z,6.70
2023-03-16T11:09:24.059Z,6.67
2023-03-16T11:11:51.197Z,6.64
2023-03-16T11:14:20.342Z,6.62
2023-03-16T11:16:51.230Z,6.60
2023-03-16T11:19:24.300Z,6.58
2023-03-16T11:22:01.482Z,6.54
2023-03-16T11:24:34.813Z,6.50
2023-03-16T11:27:04.601Z,6.47
2023-03-16T11:29:34.831Z,6.42
2023-03-16T11:32:05.793Z,6.39
2023-03-16T11:34:33.352Z,6.37
2023-03-16T11:37:06.371Z,6.35
2023-03-16T11:39:45.268Z,6.31
2023-03-16T11:42:18.817Z,6.28
2023-03-16T11:44:55.993Z,6.26
2023-03-16T11:47:27.174Z,6.22
2023-03-16T11:50:03.065Z,6.21
2023-03-16T11:52:49.455Z,6.20
2023-03-16T11:55:46.754Z,6.16
2023-03-16T11:58:16.623Z,6.11
2023-03-16T12:00:46.897Z,6.09
2023-03-16T12:03:17.651Z,6.06
2023-03-16T12:05:47.916Z,6.06
2023-03-16T12:08:17.727Z,6.04
2023-03-16T12:10:47.444Z,6.05
2023-03-16T12:13:17.341Z,6.07
2023-03-16T12:15:52.255Z,6.07
2023-03-16T12:18:42.543Z,6.10
2023-03-16T12:21:20.213Z,6.09
2023-03-16T12:23:55.474Z,6.09
2023-03-16T12:26:24.741Z,6.07
2023-03-16T12:28:53.169Z,6.04
2023-03-16T12:31:24.101Z,6.01
2023-03-16T12:34:00.637Z,5.98
2023-03-16T12:36:30.423Z,5.97
2023-03-16T12:39:02.293Z,5.95
2023-03-16T12:41:49.283Z,5.93
2023-03-16T12:44:19.242Z,5.91
2023-03-16T12:46:53.616Z,5.89
2023-03-16T12:49:24.903Z,5.86
2023-03-16T12:52:02.659Z,5.79
2023-03-16T12:54:30.023Z,5.71
2023-03-16T12:57:02.294Z,5.67
2023-03-16T12:59:36.978Z,5.65
2023-03-16T13:02:04.209Z,5.63
2023-03-16T13:04:33.929Z,5.59
2023-03-16T13:07:03.293Z,5.53
2023-03-16T13:09:35.314Z,5.49
2023-03-16T13:12:05.229Z,5.43
2023-03-16T13:14:43.382Z,5.38
2023-03-16T13:17:16.252Z,5.29
2023-03-16T13:19:45.207Z,5.19
2023-03-16T13:22:26.147Z,5.13
2023-03-16T13:25:14.138Z,5.10
2023-03-16T13:27:43.539Z,5.07
2023-03-16T13:30:18.964Z,5.02
2023-03-16T13:32:46.936Z,4.98
2023-03-16T13:35:15.572Z,4.94
2023-03-16T13:37:43.862Z,4.89
2023-03-16T13:40:22.104Z,4.85
2023-03-16T13:42:54.899Z,4.80
2023-03-16T13:45:23.442Z,4.76
2023-03-16T13:47:50.707Z,4.71
2023-03-16T13:50:19.011Z,4.74
2023-03-16T13:52:56.196Z,4.74
2023-03-16T13:55:26.872Z,4.70
2023-03-16T13:57:53.660Z,4.68
2023-03-16T14:00:24.871Z,4.65
2023-03-16T14:02:53.297Z,4.63
2023-03-16T14:05:22.484Z,4.61
2023-03-16T14:07:51.075Z,4.60
2023-03-16T14:10:18.135Z,4.59
2023-03-16T14:12:51.819Z,4.56
2023-03-16T14:15:19.130Z,4.51
2023-03-16T14:17:46.491Z,4.47
2023-03-16T14:20:21.269Z,4.42
2023-03-16T14:22:50.879Z,4.38
2023-03-16T14:25:23.742Z,4.37
2023-03-16T14:27:58.609Z,4.34
2023-03-16T14:30:28.000Z,4.31
2023-03-16T14:33:01.786Z,4.28
2023-03-16T14:35:30.455Z,4.24
2023-03-16T14:37:57.942Z,4.20
2023-03-16T14:40:30.800Z,4.18
2023-03-16T14:42:59.886Z,4.14
2023-03-16T14:45:30.327Z,4.08
2023-03-16T14:48:03.489Z,4.02
2023-03-16T14:50:31.170Z,3.96
2023-03-16T14:52:58.293Z,3.91
2023-03-16T14:55:26.017Z,3.87
2023-03-16T14:57:53.386Z,3.84
2023-03-16T15:00:21.936Z,3.80
2023-03-16T15:02:55.003Z,3.78
2023-03-16T15:05:24.651Z,3.76
2023-03-16T15:07:55.704Z,3.72
2023-03-16T15:10:24.835Z,3.69
2023-03-16T15:12:54.791Z,3.68
2023-03-16T15:15:23.816Z,3.67
2023-03-16T15:17:52.053Z,3.65
2023-03-16T15:20:23.327Z,3.62
2023-03-16T15:22:53.025Z,3.61
2023-03-16T15:25:20.778Z,3.58
2023-03-16T15:27:48.156Z,3.57
2023-03-16T15:30:16.562Z,3.57
2023-03-16T15:32:43.582Z,3.55
2023-03-16T15:35:10.945Z,3.56
2023-03-16T15:37:37.895Z,3.56
2023-03-16T15:40:18.442Z,3.58
2023-03-16T15:42:46.946Z,3.61
2023-03-16T15:45:15.777Z,3.61
2023-03-16T15:47:43.423Z,3.63
2023-03-16T15:50:11.690Z,3.64
2023-03-16T15:52:39.678Z,3.64
2023-03-16T15:55:08.562Z,3.63
2023-03-16T15:57:35.719Z,3.63
2023-03-16T16:00:02.690Z,3.63
2023-03-16T16:02:34.446Z,3.64
2023-03-16T16:05:03.605Z,3.63
2023-03-16T16:07:30.576Z,3.64
2023-03-16T16:09:57.514Z,3.64
2023-03-16T16:12:32.677Z,3.66
2023-03-16T16:14:59.450Z,3.65
2023-03-16T16:17:48.051Z,3.65
2023-03-16T16:20:18.195Z,3.64
2023-03-16T16:22:45.300Z,3.64
2023-03-16T16:25:15.671Z,3.64
2023-03-16T16:27:45.400Z,3.64
2023-03-16T16:30:24.198Z,3.65
2023-03-16T16:32:51.728Z,3.66
2023-03-16T16:35:28.270Z,3.64
2023-03-16T16:37:56.004Z,3.59
2023-03-16T16:40:25.968Z,3.54
2023-03-16T16:42:53.909Z,3.50
2023-03-16T16:45:25.970Z,3.46
2023-03-16T16:47:55.739Z,3.39
2023-03-16T16:50:27.708Z,3.34
2023-03-16T16:52:55.148Z,3.30
2023-03-16T16:55:25.138Z,3.28
2023-03-16T16:57:54.106Z,3.26
2023-03-16T17:00:25.928Z,3.25
2023-03-16T17:02:54.500Z,3.22
2023-03-16T17:05:23.398Z,3.19
2023-03-16T17:07:51.137Z,3.17
2023-03-16T17:10:28.465Z,3.15
2023-03-16T17:12:57.904Z,3.14
2023-03-16T17:15:30.266Z,3.14
2023-03-16T17:18:15.733Z,3.14
2023-03-16T17:20:42.628Z,3.14
2023-03-16T17:23:25.178Z,3.15
2023-03-16T17:25:53.307Z,3.16
2023-03-16T17:28:20.652Z,3.15
2023-03-16T17:30:50.481Z,3.11
2023-03-16T17:33:22.187Z,3.08
2023-03-16T17:35:51.611Z,3.07
2023-03-16T17:38:22.320Z,3.07
2023-03-16T17:40:53.574Z,3.07
2023-03-16T17:43:39.130Z,3.06
2023-03-16T17:46:07.514Z,3.07
2023-03-16T17:48:41.620Z,3.04
2023-03-16T17:51:15.568Z,3.03
2023-03-16T17:53:49.370Z,3.01
2023-03-16T17:56:35.849Z,3.00
2023-03-16T17:59:05.621Z,2.97
2023-03-16T18:01:36.016Z,2.97
2023-03-16T18:04:03.535Z,2.96
2023-03-16T18:06:31.398Z,2.96
2023-03-16T18:08:58.400Z,2.96
2023-03-16T18:11:30.916Z,2.93
2023-03-16T18:13:58.228Z,2.93
2023-03-16T18:16:31.435Z,2.93
2023-03-16T18:19:06.072Z,2.93
2023-03-16T18:21:33.618Z,2.93
2023-03-16T18:24:03.524Z,2.93
2023-03-16T18:28:41.650Z,2.92
2023-03-16T18:30:19.994Z,2.91
2023-03-16T18:32:47.884Z,2.89
2023-03-16T18:35:15.798Z,2.87
2023-03-16T18:37:43.342Z,2.85
2023-03-16T18:40:17.396Z,2.84
2023-03-16T18:42:47.119Z,2.82
2023-03-16T18:45:18.403Z,2.81
2023-03-16T18:47:49.196Z,2.81
2023-03-16T18:50:19.935Z,2.79
2023-03-16T18:52:49.700Z,2.76
2023-03-16T18:55:18.595Z,2.74
2023-03-16T18:57:49.553Z,2.69
2023-03-16T19:00:21.476Z,2.67
2023-03-16T19:02:53.303Z,2.65
2023-03-16T19:05:22.481Z,2.62
2023-03-16T19:07:51.682Z,2.59
2023-03-16T19:10:23.831Z,2.59
2023-03-16T19:12:51.025Z,2.57
2023-03-16T19:15:22.792Z,2.57
2023-03-16T19:17:51.834Z,2.55
2023-03-16T19:20:20.630Z,2.54
2023-03-16T19:22:49.364Z,2.53
2023-03-16T19:25:29.634Z,2.52
2023-03-16T19:27:59.596Z,2.51
2023-03-16T19:30:30.333Z,2.51
2023-03-16T19:32:58.242Z,2.53
2023-03-16T19:35:44.321Z,2.55
2023-03-16T19:38:15.230Z,2.54
2023-03-16T19:40:42.675Z,2.53
2023-03-16T19:43:15.245Z,2.50
2023-03-16T19:45:43.140Z,2.51
2023-03-16T19:48:22.466Z,2.50
2023-03-16T19:50:50.173Z,2.48
2023-03-16T19:53:22.636Z,2.48
2023-03-16T19:55:50.807Z,2.47
2023-03-16T19:58:31.490Z,2.46
2023-03-16T20:01:03.626Z,2.46
2023-03-16T20:03:34.246Z,2.51
2023-03-16T20:06:01.367Z,2.50
2023-03-16T20:08:29.262Z,2.48
2023-03-16T20:11:05.727Z,2.44
2023-03-16T20:13:35.785Z,2.43
2023-03-16T20:16:03.678Z,2.41
2023-03-16T20:18:30.634Z,2.41
2023-03-16T20:20:58.781Z,2.41
2023-03-16T20:23:27.038Z,2.40
2023-03-16T20:26:02.990Z,2.38
2023-03-16T20:28:38.885Z,2.38
2023-03-16T20:31:08.334Z,2.38
2023-03-16T20:33:36.532Z,2.39
2023-03-16T20:36:07.881Z,2.39
2023-03-16T20:38:34.806Z,2.38
2023-03-16T20:41:01.884Z,2.36
2023-03-16T20:43:30.316Z,2.34
2023-03-16T20:45:59.171Z,2.33
2023-03-16T20:48:31.239Z,2.32
2023-03-16T20:53:43.918Z,2.30
2023-03-16T20:56:14.696Z,2.32
2023-03-16T20:58:44.645Z,2.31
2023-03-16T21:01:18.752Z,2.32
2023-03-16T21:03:47.839Z,2.32
2023-03-16T21:06:26.471Z,2.31
2023-03-16T21:09:05.984Z,2.32
2023-03-16T21:11:36.102Z,2.31
2023-03-16T21:14:03.521Z,2.31
2023-03-16T21:16:31.085Z,2.30
2023-03-16T21:18:57.955Z,2.30
2023-03-16T21:21:25.688Z,2.31
2023-03-16T21:23:52.803Z,2.32
2023-03-16T21:26:52.768Z,2.31
2023-03-16T21:29:22.086Z,2.32
2023-03-16T21:31:49.123Z,2.35
2023-03-16T21:34:30.324Z,2.37
2023-03-16T21:37:01.439Z,2.38
2023-03-16T21:39:30.370Z,2.37
2023-03-16T21:41:57.199Z,2.35
2023-03-16T21:44:24.171Z,2.35
2023-03-16T21:46:51.234Z,2.36
2023-03-16T21:49:18.251Z,2.37
2023-03-16T21:51:45.169Z,2.35
2023-03-16T21:54:14.558Z,2.35
2023-03-16T21:56:43.006Z,2.35
2023-03-16T21:59:10.122Z,2.35
2023-03-16T22:01:54.340Z,2.34
2023-03-16T22:04:28.024Z,2.33
2023-03-16T22:06:54.846Z,2.32
2023-03-16T22:09:30.179Z,2.32
2023-03-16T22:11:57.251Z,2.33
2023-03-16T22:14:24.063Z,2.30
2023-03-16T22:16:51.776Z,2.28
2023-03-16T22:19:19.033Z,2.26
2023-03-16T22:21:47.322Z,2.27
2023-03-16T22:24:16.615Z,2.26
2023-03-16T22:26:43.491Z,2.28
2023-03-16T22:29:30.812Z,2.29
2023-03-16T22:32:08.604Z,2.29
2023-03-16T22:34:38.276Z,2.29
2023-03-16T22:37:05.751Z,2.30
2023-03-16T22:39:35.503Z,2.28
2023-03-16T22:42:02.584Z,2.28
2023-03-16T22:44:29.782Z,2.28
2023-03-16T22:46:56.924Z,2.30
2023-03-16T22:49:26.416Z,2.29
2023-03-16T22:51:55.586Z,2.27
2023-03-16T22:54:24.854Z,2.25
2023-03-16T22:56:52.237Z,2.25
2023-03-16T22:59:21.037Z,2.24
2023-03-16T23:01:49.342Z,2.24
2023-03-16T23:04:18.812Z,2.24
2023-03-16T23:06:47.312Z,2.22
2023-03-16T23:09:15.507Z,2.21
2023-03-16T23:11:43.747Z,2.20
2023-03-16T23:14:14.994Z,2.21
2023-03-16T23:16:42.140Z,2.21
2023-03-16T23:19:25.223Z,2.21
2023-03-16T23:21:54.677Z,2.21
2023-03-16T23:24:22.260Z,2.21
2023-03-16T23:26:49.796Z,2.20
2023-03-16T23:29:16.749Z,2.18
2023-03-16T23:31:43.666Z,2.18
2023-03-16T23:34:14.490Z,2.16
2023-03-16T23:36:41.443Z,2.15
2023-03-16T23:39:09.100Z,2.15
2023-03-16T23:41:36.522Z,2.15
2023-03-16T23:44:05.095Z,2.14
2023-03-16T23:46:32.121Z,2.13
2023-03-16T23:49:01.925Z,2.13
2023-03-16T23:51:30.968Z,2.14
2023-03-16T23:53:58.411Z,2.13
2023-03-16T23:56:26.282Z,2.12
2023-03-16T23:58:53.394Z,2.12
